Terminal Aerodrome Forecast
Issued by NWS Wilmington, OH

Current Version | Previous Version | Graphics & Text | Print | Product List | Glossary On
Versions: 1 2 3 4 5 6 7 8 9 10 11 12 13 14 15 16 17 18 19
164
FTUS41 KILN 071122
TAFILN
TAF
KILN 071122Z 0712/0812 21006KT P6SM FEW250
     FM071500 21012G20KT P6SM BKN150
     FM072300 20012KT P6SM BKN050 OVC120
     FM080500 20010KT P6SM -RA SCT025 OVC035=

USA.gov is the U.S. government's official web portal to all federal, state and local government web resources and services.